sensor_id;sensor_type;location;lat;lon;timestamp;temperature;humidity
68385;DHT22;55336;43.062;25.626;2023-03-01T00:01:05;5.90;99.90
68385;DHT22;55336;43.062;25.626;2023-03-01T00:03:31;5.90;99.90
68385;DHT22;55336;43.062;25.626;2023-03-01T00:05:57;5.80;99.90
68385;DHT22;55336;43.062;25.626;2023-03-01T00:08:24;5.80;99.90
68385;DHT22;55336;43.062;25.626;2023-03-01T00:10:59;5.90;99.90
68385;DHT22;55336;43.062;25.626;2023-03-01T00:13:24;5.80;99.90
68385;DHT22;55336;43.062;25.626;2023-03-01T00:15:50;5.80;99.90
68385;DHT22;55336;43.062;25.626;2023-03-01T00:18:16;5.80;99.90
68385;DHT22;55336;43.062;25.626;2023-03-01T00:20:48;5.80;99.90
68385;DHT22;55336;43.062;25.626;2023-03-01T00:23:14;5.80;99.90
68385;DHT22;55336;43.062;25.626;2023-03-01T00:25:43;5.80;99.90
68385;DHT22;55336;43.062;25.626;2023-03-01T00:28:09;5.80;99.90
68385;DHT22;55336;43.062;25.626;2023-03-01T00:30:34;5.90;99.90
68385;DHT22;55336;43.062;25.626;2023-03-01T00:33:00;5.80;99.90
68385;DHT22;55336;43.062;25.626;2023-03-01T00:35:26;5.80;99.90
68385;DHT22;55336;43.062;25.626;2023-03-01T00:37:52;5.80;99.90
68385;DHT22;55336;43.062;25.626;2023-03-01T00:40:27;5.70;99.90
68385;DHT22;55336;43.062;25.626;2023-03-01T00:42:53;5.80;99.90
68385;DHT22;55336;43.062;25.626;2023-03-01T00:45:18;5.80;99.90
68385;DHT22;55336;43.062;25.626;2023-03-01T00:47:45;5.80;99.90
68385;DHT22;55336;43.062;25.626;2023-03-01T00:50:11;5.80;99.90
68385;DHT22;55336;43.062;25.626;2023-03-01T00:52:37;5.80;99.90
68385;DHT22;55336;43.062;25.626;2023-03-01T00:55:04;5.80;99.90
68385;DHT22;55336;43.062;25.626;2023-03-01T00:57:30;5.80;99.90
68385;DHT22;55336;43.062;25.626;2023-03-01T00:59:56;5.80;99.90
68385;DHT22;55336;43.062;25.626;2023-03-01T01:02:22;5.80;99.90
68385;DHT22;55336;43.062;25.626;2023-03-01T01:04:48;5.90;99.90
68385;DHT22;55336;43.062;25.626;2023-03-01T01:07:14;5.90;99.90
68385;DHT22;55336;43.062;25.626;2023-03-01T01:09:41;5.80;99.90
68385;DHT22;55336;43.062;25.626;2023-03-01T01:12:07;5.80;99.90
68385;DHT22;55336;43.062;25.626;2023-03-01T01:14:33;5.80;99.90
68385;DHT22;55336;43.062;25.626;2023-03-01T01:16:59;5.80;99.90
68385;DHT22;55336;43.062;25.626;2023-03-01T01:19:25;5.80;99.90
68385;DHT22;55336;43.062;25.626;2023-03-01T01:21:52;5.80;99.90
68385;DHT22;55336;43.062;25.626;2023-03-01T01:24:18;5.80;99.90
68385;DHT22;55336;43.062;25.626;2023-03-01T01:26:44;5.80;99.90
68385;DHT22;55336;43.062;25.626;2023-03-01T01:29:11;5.80;99.90
68385;DHT22;55336;43.062;25.626;2023-03-01T01:31:38;5.70;99.90
68385;DHT22;55336;43.062;25.626;2023-03-01T01:34:06;5.70;99.90
68385;DHT22;55336;43.062;25.626;2023-03-01T01:36:33;5.70;99.90
68385;DHT22;55336;43.062;25.626;2023-03-01T01:39:00;5.70;99.90
68385;DHT22;55336;43.062;25.626;2023-03-01T01:41:27;5.70;99.90
68385;DHT22;55336;43.062;25.626;2023-03-01T01:46:43;5.60;99.90
68385;DHT22;55336;43.062;25.626;2023-03-01T01:52:07;5.60;99.90
68385;DHT22;55336;43.062;25.626;2023-03-01T01:54:50;5.50;99.90
68385;DHT22;55336;43.062;25.626;2023-03-01T01:57:24;5.50;99.90
68385;DHT22;55336;43.062;25.626;2023-03-01T01:59:59;5.50;99.90
68385;DHT22;55336;43.062;25.626;2023-03-01T02:02:25;5.60;99.90
68385;DHT22;55336;43.062;25.626;2023-03-01T02:04:58;5.60;99.90
68385;DHT22;55336;43.062;25.626;2023-03-01T02:07:24;5.60;99.90
68385;DHT22;55336;43.062;25.626;2023-03-01T02:09:52;5.60;99.90
68385;DHT22;55336;43.062;25.626;2023-03-01T02:12:21;5.90;99.90
68385;DHT22;55336;43.062;25.626;2023-03-01T02:14:48;5.60;99.90
68385;DHT22;55336;43.062;25.626;2023-03-01T02:17:14;5.60;99.90
68385;DHT22;55336;43.062;25.626;2023-03-01T02:22:28;5.60;99.90
68385;DHT22;55336;43.062;25.626;2023-03-01T02:25:00;5.60;99.90
68385;DHT22;55336;43.062;25.626;2023-03-01T02:30:18;5.60;99.90
68385;DHT22;55336;43.062;25.626;2023-03-01T02:32:44;5.60;99.90
68385;DHT22;55336;43.062;25.626;2023-03-01T02:35:14;5.60;99.90
68385;DHT22;55336;43.062;25.626;2023-03-01T02:37:41;5.60;99.90
68385;DHT22;55336;43.062;25.626;2023-03-01T02:40:18;5.60;99.90
68385;DHT22;55336;43.062;25.626;2023-03-01T02:42:53;5.60;99.90
68385;DHT22;55336;43.062;25.626;2023-03-01T02:45:20;5.60;99.90
68385;DHT22;55336;43.062;25.626;2023-03-01T02:47:45;5.70;99.90
68385;DHT22;55336;43.062;25.626;2023-03-01T02:53:09;5.60;99.90
68385;DHT22;55336;43.062;25.626;2023-03-01T02:55:36;5.70;99.90
68385;DHT22;55336;43.062;25.626;2023-03-01T02:58:02;5.70;99.90
68385;DHT22;55336;43.062;25.626;2023-03-01T03:00:32;5.70;99.90
68385;DHT22;55336;43.062;25.626;2023-03-01T03:02:59;5.70;99.90
68385;DHT22;55336;43.062;25.626;2023-03-01T03:05:26;5.70;99.90
68385;DHT22;55336;43.062;25.626;2023-03-01T03:07:53;5.70;99.90
68385;DHT22;55336;43.062;25.626;2023-03-01T03:10:23;5.70;99.90
68385;DHT22;55336;43.062;25.626;2023-03-01T03:12:54;5.70;99.90
68385;DHT22;55336;43.062;25.626;2023-03-01T03:15:21;5.70;99.90
68385;DHT22;55336;43.062;25.626;2023-03-01T03:17:47;5.70;99.90
68385;DHT22;55336;43.062;25.626;2023-03-01T03:20:16;5.70;99.90
68385;DHT22;55336;43.062;25.626;2023-03-01T03:22:49;5.70;99.90
68385;DHT22;55336;43.062;25.626;2023-03-01T03:25:16;5.60;99.90
68385;DHT22;55336;43.062;25.626;2023-03-01T03:27:43;5.60;99.90
68385;DHT22;55336;43.062;25.626;2023-03-01T03:30:13;5.60;99.90
68385;DHT22;55336;43.062;25.626;2023-03-01T03:32:39;5.70;99.90
68385;DHT22;55336;43.062;25.626;2023-03-01T03:35:07;5.70;99.90
68385;DHT22;55336;43.062;25.626;2023-03-01T03:37:40;5.70;99.90
68385;DHT22;55336;43.062;25.626;2023-03-01T03:40:25;5.70;99.90
68385;DHT22;55336;43.062;25.626;2023-03-01T03:42:51;5.70;99.90
68385;DHT22;55336;43.062;25.626;2023-03-01T03:45:17;5.70;99.90
68385;DHT22;55336;43.062;25.626;2023-03-01T03:47:43;5.70;99.90
68385;DHT22;55336;43.062;25.626;2023-03-01T03:50:11;5.70;99.90
68385;DHT22;55336;43.062;25.626;2023-03-01T03:52:37;5.70;99.90
68385;DHT22;55336;43.062;25.626;2023-03-01T03:55:02;5.70;99.90
68385;DHT22;55336;43.062;25.626;2023-03-01T03:57:28;5.60;99.90
68385;DHT22;55336;43.062;25.626;2023-03-01T03:59:54;5.70;99.90
68385;DHT22;55336;43.062;25.626;2023-03-01T04:02:20;5.70;99.90
68385;DHT22;55336;43.062;25.626;2023-03-01T04:04:49;5.70;99.90
68385;DHT22;55336;43.062;25.626;2023-03-01T04:07:16;5.70;99.90
68385;DHT22;55336;43.062;25.626;2023-03-01T04:09:43;5.70;99.90
68385;DHT22;55336;43.062;25.626;2023-03-01T04:12:09;5.70;99.90
68385;DHT22;55336;43.062;25.626;2023-03-01T04:14:36;5.70;99.90
68385;DHT22;55336;43.062;25.626;2023-03-01T04:17:02;5.70;99.90
68385;DHT22;55336;43.062;25.626;2023-03-01T04:19:33;5.70;99.90
68385;DHT22;55336;43.062;25.626;2023-03-01T04:22:02;5.70;99.90
68385;DHT22;55336;43.062;25.626;2023-03-01T04:24:38;5.70;99.90
68385;DHT22;55336;43.062;25.626;2023-03-01T04:27:03;5.80;99.90
68385;DHT22;55336;43.062;25.626;2023-03-01T04:29:29;5.80;99.90
68385;DHT22;55336;43.062;25.626;2023-03-01T04:31:55;5.80;99.90
68385;DHT22;55336;43.062;25.626;2023-03-01T04:34:21;5.80;99.90
68385;DHT22;55336;43.062;25.626;2023-03-01T04:36:46;5.70;99.90
68385;DHT22;55336;43.062;25.626;2023-03-01T04:39:12;5.70;99.90
68385;DHT22;55336;43.062;25.626;2023-03-01T04:41:39;5.80;99.90
68385;DHT22;55336;43.062;25.626;2023-03-01T04:44:06;5.80;99.90
68385;DHT22;55336;43.062;25.626;2023-03-01T04:46:32;5.80;99.90
68385;DHT22;55336;43.062;25.626;2023-03-01T04:48:58;5.80;99.90
68385;DHT22;55336;43.062;25.626;2023-03-01T04:51:24;5.80;99.90
68385;DHT22;55336;43.062;25.626;2023-03-01T04:53:49;5.80;99.90
68385;DHT22;55336;43.062;25.626;2023-03-01T04:56:16;5.80;99.90
68385;DHT22;55336;43.062;25.626;2023-03-01T04:58:44;5.80;99.90
68385;DHT22;55336;43.062;25.626;2023-03-01T05:01:18;5.80;99.90
68385;DHT22;55336;43.062;25.626;2023-03-01T05:03:49;5.70;99.90
68385;DHT22;55336;43.062;25.626;2023-03-01T05:06:16;5.80;99.90
68385;DHT22;55336;43.062;25.626;2023-03-01T05:08:43;5.80;99.90
68385;DHT22;55336;43.062;25.626;2023-03-01T05:11:10;5.80;99.90
68385;DHT22;55336;43.062;25.626;2023-03-01T05:13:37;5.90;99.90
68385;DHT22;55336;43.062;25.626;2023-03-01T05:16:04;5.90;99.90
68385;DHT22;55336;43.062;25.626;2023-03-01T05:18:32;5.90;99.90
68385;DHT22;55336;43.062;25.626;2023-03-01T05:21:05;5.90;99.90
68385;DHT22;55336;43.062;25.626;2023-03-01T05:23:33;5.90;99.90
68385;DHT22;55336;43.062;25.626;2023-03-01T05:25:59;5.90;99.90
68385;DHT22;55336;43.062;25.626;2023-03-01T05:28:26;5.90;99.90
68385;DHT22;55336;43.062;25.626;2023-03-01T05:30:54;5.90;99.90
68385;DHT22;55336;43.062;25.626;2023-03-01T05:33:20;5.90;99.90
68385;DHT22;55336;43.062;25.626;2023-03-01T05:35:48;5.90;99.90
68385;DHT22;55336;43.062;25.626;2023-03-01T05:38:15;5.90;99.90
68385;DHT22;55336;43.062;25.626;2023-03-01T05:40:46;5.90;99.90
68385;DHT22;55336;43.062;25.626;2023-03-01T05:43:14;5.90;99.90
68385;DHT22;55336;43.062;25.626;2023-03-01T05:45:40;5.90;99.90
68385;DHT22;55336;43.062;25.626;2023-03-01T05:48:07;5.90;99.90
68385;DHT22;55336;43.062;25.626;2023-03-01T05:50:36;5.90;99.90
68385;DHT22;55336;43.062;25.626;2023-03-01T05:53:05;5.90;99.90
68385;DHT22;55336;43.062;25.626;2023-03-01T05:55:33;5.90;99.90
68385;DHT22;55336;43.062;25.626;2023-03-01T05:58:01;6.00;99.90
68385;DHT22;55336;43.062;25.626;2023-03-01T06:00:28;6.00;99.90
68385;DHT22;55336;43.062;25.626;2023-03-01T06:02:54;6.00;99.90
68385;DHT22;55336;43.062;25.626;2023-03-01T06:05:21;6.00;99.90
68385;DHT22;55336;43.062;25.626;2023-03-01T06:07:47;6.00;99.90
68385;DHT22;55336;43.062;25.626;2023-03-01T06:10:14;6.00;99.90
68385;DHT22;55336;43.062;25.626;2023-03-01T06:12:41;6.00;99.90
68385;DHT22;55336;43.062;25.626;2023-03-01T06:15:08;6.00;99.90
68385;DHT22;55336;43.062;25.626;2023-03-01T06:17:38;6.00;99.90
68385;DHT22;55336;43.062;25.626;2023-03-01T06:20:09;6.10;99.90
68385;DHT22;55336;43.062;25.626;2023-03-01T06:22:35;6.10;99.90
68385;DHT22;55336;43.062;25.626;2023-03-01T06:25:01;6.10;99.90
68385;DHT22;55336;43.062;25.626;2023-03-01T06:27:27;6.10;99.90
68385;DHT22;55336;43.062;25.626;2023-03-01T06:29:53;6.10;99.90
68385;DHT22;55336;43.062;25.626;2023-03-01T06:32:19;6.10;99.90
68385;DHT22;55336;43.062;25.626;2023-03-01T06:34:46;6.10;99.90
68385;DHT22;55336;43.062;25.626;2023-03-01T06:37:11;6.10;99.90
68385;DHT22;55336;43.062;25.626;2023-03-01T06:39:37;6.10;99.90
68385;DHT22;55336;43.062;25.626;2023-03-01T06:42:03;6.10;99.90
68385;DHT22;55336;43.062;25.626;2023-03-01T06:44:29;6.10;99.90
68385;DHT22;55336;43.062;25.626;2023-03-01T06:46:55;6.10;99.90
68385;DHT22;55336;43.062;25.626;2023-03-01T06:49:20;6.10;99.90
68385;DHT22;55336;43.062;25.626;2023-03-01T06:51:46;6.10;99.90
68385;DHT22;55336;43.062;25.626;2023-03-01T06:54:13;6.10;99.90
68385;DHT22;55336;43.062;25.626;2023-03-01T06:56:39;6.10;99.90
68385;DHT22;55336;43.062;25.626;2023-03-01T06:59:04;6.10;99.90
68385;DHT22;55336;43.062;25.626;2023-03-01T07:01:32;6.10;99.90
68385;DHT22;55336;43.062;25.626;2023-03-01T07:03:58;6.20;99.90
68385;DHT22;55336;43.062;25.626;2023-03-01T07:06:23;6.00;99.90
68385;DHT22;55336;43.062;25.626;2023-03-01T07:08:49;6.00;99.90
68385;DHT22;55336;43.062;25.626;2023-03-01T07:11:15;6.10;99.90
68385;DHT22;55336;43.062;25.626;2023-03-01T07:13:41;6.00;99.90
68385;DHT22;55336;43.062;25.626;2023-03-01T07:16:07;6.10;99.90
68385;DHT22;55336;43.062;25.626;2023-03-01T07:18:33;6.20;99.90
68385;DHT22;55336;43.062;25.626;2023-03-01T07:21:03;6.10;99.90
68385;DHT22;55336;43.062;25.626;2023-03-01T07:23:29;6.20;99.90
68385;DHT22;55336;43.062;25.626;2023-03-01T07:25:55;6.20;99.90
68385;DHT22;55336;43.062;25.626;2023-03-01T07:28:24;6.20;99.90
68385;DHT22;55336;43.062;25.626;2023-03-01T07:30:50;6.20;99.90
68385;DHT22;55336;43.062;25.626;2023-03-01T07:33:16;6.30;99.90
68385;DHT22;55336;43.062;25.626;2023-03-01T07:35:42;6.30;99.90
68385;DHT22;55336;43.062;25.626;2023-03-01T07:38:07;6.40;99.90
68385;DHT22;55336;43.062;25.626;2023-03-01T07:40:33;6.50;99.90
68385;DHT22;55336;43.062;25.626;2023-03-01T07:42:59;6.50;99.90
68385;DHT22;55336;43.062;25.626;2023-03-01T07:45:27;6.40;99.90
68385;DHT22;55336;43.062;25.626;2023-03-01T07:47:54;6.50;99.90
68385;DHT22;55336;43.062;25.626;2023-03-01T07:50:20;6.40;99.90
68385;DHT22;55336;43.062;25.626;2023-03-01T07:52:47;6.50;99.90
68385;DHT22;55336;43.062;25.626;2023-03-01T07:55:14;6.60;99.90
68385;DHT22;55336;43.062;25.626;2023-03-01T07:57:40;6.60;99.90
68385;DHT22;55336;43.062;25.626;2023-03-01T08:00:07;6.60;99.90
68385;DHT22;55336;43.062;25.626;2023-03-01T08:02:33;6.60;99.90
68385;DHT22;55336;43.062;25.626;2023-03-01T08:04:58;6.60;99.90
68385;DHT22;55336;43.062;25.626;2023-03-01T08:07:24;6.60;99.90
68385;DHT22;55336;43.062;25.626;2023-03-01T08:09:50;6.70;99.90
68385;DHT22;55336;43.062;25.626;2023-03-01T08:12:15;6.70;99.90
68385;DHT22;55336;43.062;25.626;2023-03-01T08:14:44;6.80;99.90
68385;DHT22;55336;43.062;25.626;2023-03-01T08:17:10;6.70;99.90
68385;DHT22;55336;43.062;25.626;2023-03-01T08:19:36;6.70;99.90
68385;DHT22;55336;43.062;25.626;2023-03-01T08:22:02;6.70;99.90
68385;DHT22;55336;43.062;25.626;2023-03-01T08:24:28;6.70;99.90
68385;DHT22;55336;43.062;25.626;2023-03-01T08:26:54;6.70;99.90
68385;DHT22;55336;43.062;25.626;2023-03-01T08:29:20;6.80;99.90
68385;DHT22;55336;43.062;25.626;2023-03-01T08:31:46;6.70;99.90
68385;DHT22;55336;43.062;25.626;2023-03-01T08:34:14;6.70;99.90
68385;DHT22;55336;43.062;25.626;2023-03-01T08:36:42;6.60;99.90
68385;DHT22;55336;43.062;25.626;2023-03-01T08:39:10;6.60;99.90
68385;DHT22;55336;43.062;25.626;2023-03-01T08:41:37;6.60;99.90
68385;DHT22;55336;43.062;25.626;2023-03-01T08:44:04;6.70;99.90
68385;DHT22;55336;43.062;25.626;2023-03-01T08:46:40;6.70;99.90
68385;DHT22;55336;43.062;25.626;2023-03-01T08:49:08;6.70;99.90
68385;DHT22;55336;43.062;25.626;2023-03-01T08:51:34;6.80;99.90
68385;DHT22;55336;43.062;25.626;2023-03-01T08:54:34;6.80;99.90
68385;DHT22;55336;43.062;25.626;2023-03-01T08:57:03;6.90;99.90
68385;DHT22;55336;43.062;25.626;2023-03-01T08:59:29;7.00;99.90
68385;DHT22;55336;43.062;25.626;2023-03-01T09:01:55;6.90;99.90
68385;DHT22;55336;43.062;25.626;2023-03-01T09:04:22;6.80;99.90
68385;DHT22;55336;43.062;25.626;2023-03-01T09:06:48;6.80;99.90
68385;DHT22;55336;43.062;25.626;2023-03-01T09:09:16;6.70;99.90
68385;DHT22;55336;43.062;25.626;2023-03-01T09:11:43;6.70;99.90
68385;DHT22;55336;43.062;25.626;2023-03-01T09:14:12;6.70;99.90
68385;DHT22;55336;43.062;25.626;2023-03-01T09:16:37;6.70;99.90
68385;DHT22;55336;43.062;25.626;2023-03-01T09:19:03;6.70;99.90
68385;DHT22;55336;43.062;25.626;2023-03-01T09:21:29;6.70;99.90
68385;DHT22;55336;43.062;25.626;2023-03-01T09:23:55;6.70;99.90
68385;DHT22;55336;43.062;25.626;2023-03-01T09:26:22;6.80;99.90
68385;DHT22;55336;43.062;25.626;2023-03-01T09:28:50;6.80;99.90
68385;DHT22;55336;43.062;25.626;2023-03-01T09:31:19;6.80;99.90
68385;DHT22;55336;43.062;25.626;2023-03-01T09:33:49;6.90;99.90
68385;DHT22;55336;43.062;25.626;2023-03-01T09:36:19;6.90;99.90
68385;DHT22;55336;43.062;25.626;2023-03-01T09:38:46;7.00;99.90
68385;DHT22;55336;43.062;25.626;2023-03-01T09:46:40;7.30;99.90
68385;DHT22;55336;43.062;25.626;2023-03-01T09:49:15;7.40;99.90
68385;DHT22;55336;43.062;25.626;2023-03-01T09:51:43;7.30;99.90
68385;DHT22;55336;43.062;25.626;2023-03-01T09:54:14;7.40;99.90
68385;DHT22;55336;43.062;25.626;2023-03-01T09:56:41;7.60;99.90
68385;DHT22;55336;43.062;25.626;2023-03-01T09:59:40;7.60;99.90
68385;DHT22;55336;43.062;25.626;2023-03-01T10:04:55;7.70;99.90
68385;DHT22;55336;43.062;25.626;2023-03-01T10:07:27;7.60;99.90
68385;DHT22;55336;43.062;25.626;2023-03-01T10:09:55;7.70;99.90
68385;DHT22;55336;43.062;25.626;2023-03-01T10:12:22;7.70;99.90
68385;DHT22;55336;43.062;25.626;2023-03-01T10:17:57;7.80;99.90
68385;DHT22;55336;43.062;25.626;2023-03-01T10:20:33;7.80;99.90
68385;DHT22;55336;43.062;25.626;2023-03-01T10:23:04;7.70;99.90
68385;DHT22;55336;43.062;25.626;2023-03-01T10:31:24;7.60;99.90
68385;DHT22;55336;43.062;25.626;2023-03-01T10:33:53;7.50;99.90
68385;DHT22;55336;43.062;25.626;2023-03-01T10:36:24;7.50;99.90
68385;DHT22;55336;43.062;25.626;2023-03-01T10:38:55;7.40;99.90
68385;DHT22;55336;43.062;25.626;2023-03-01T10:41:23;7.40;99.90
68385;DHT22;55336;43.062;25.626;2023-03-01T10:43:53;7.40;99.90
68385;DHT22;55336;43.062;25.626;2023-03-01T10:51:38;7.20;99.90
68385;DHT22;55336;43.062;25.626;2023-03-01T10:54:14;7.30;99.90
68385;DHT22;55336;43.062;25.626;2023-03-01T10:56:51;7.10;99.90
68385;DHT22;55336;43.062;25.626;2023-03-01T10:59:39;7.10;99.90
68385;DHT22;55336;43.062;25.626;2023-03-01T11:02:25;7.10;99.90
68385;DHT22;55336;43.062;25.626;2023-03-01T11:04:57;7.10;99.90
68385;DHT22;55336;43.062;25.626;2023-03-01T11:07:23;7.20;99.90
68385;DHT22;55336;43.062;25.626;2023-03-01T11:09:49;7.20;99.90
68385;DHT22;55336;43.062;25.626;2023-03-01T11:12:16;7.20;99.90
68385;DHT22;55336;43.062;25.626;2023-03-01T11:14:47;7.30;99.90
68385;DHT22;55336;43.062;25.626;2023-03-01T11:22:33;7.40;99.90
68385;DHT22;55336;43.062;25.626;2023-03-01T11:25:01;7.40;99.90
68385;DHT22;55336;43.062;25.626;2023-03-01T11:27:38;7.40;99.90
68385;DHT22;55336;43.062;25.626;2023-03-01T11:30:28;7.40;99.90
68385;DHT22;55336;43.062;25.626;2023-03-01T11:38:34;7.40;99.90
68385;DHT22;55336;43.062;25.626;2023-03-01T11:41:12;7.40;99.90
68385;DHT22;55336;43.062;25.626;2023-03-01T11:52:01;7.50;99.90
68385;DHT22;55336;43.062;25.626;2023-03-01T11:55:00;7.50;99.90
68385;DHT22;55336;43.062;25.626;2023-03-01T11:57:47;7.50;99.90
68385;DHT22;55336;43.062;25.626;2023-03-01T12:03:42;7.50;99.90
68385;DHT22;55336;43.062;25.626;2023-03-01T12:09:14;7.50;99.90
68385;DHT22;55336;43.062;25.626;2023-03-01T12:12:24;7.50;99.90
68385;DHT22;55336;43.062;25.626;2023-03-01T12:17:35;7.40;99.90
68385;DHT22;55336;43.062;25.626;2023-03-01T12:20:18;7.40;99.90
68385;DHT22;55336;43.062;25.626;2023-03-01T12:26:03;7.40;99.90
68385;DHT22;55336;43.062;25.626;2023-03-01T12:28:51;7.30;99.90
68385;DHT22;55336;43.062;25.626;2023-03-01T12:34:51;7.40;99.90
68385;DHT22;55336;43.062;25.626;2023-03-01T12:37:39;7.50;99.90
68385;DHT22;55336;43.062;25.626;2023-03-01T12:49:01;7.50;99.90
68385;DHT22;55336;43.062;25.626;2023-03-01T12:51:31;7.30;99.90
68385;DHT22;55336;43.062;25.626;2023-03-01T12:53:59;7.40;99.90
68385;DHT22;55336;43.062;25.626;2023-03-01T12:56:29;7.30;99.90
68385;DHT22;55336;43.062;25.626;2023-03-01T12:58:59;7.30;99.90
68385;DHT22;55336;43.062;25.626;2023-03-01T13:07:09;7.20;99.90
68385;DHT22;55336;43.062;25.626;2023-03-01T13:15:35;7.20;99.90
68385;DHT22;55336;43.062;25.626;2023-03-01T13:20:52;7.20;99.90
68385;DHT22;55336;43.062;25.626;2023-03-01T13:31:03;7.20;99.90
68385;DHT22;55336;43.062;25.626;2023-03-01T13:35:56;7.20;99.90
68385;DHT22;55336;43.062;25.626;2023-03-01T13:41:09;7.20;99.90
68385;DHT22;55336;43.062;25.626;2023-03-01T13:43:40;7.20;99.90
68385;DHT22;55336;43.062;25.626;2023-03-01T13:46:16;7.10;99.90
68385;DHT22;55336;43.062;25.626;2023-03-01T13:48:44;7.20;99.90
68385;DHT22;55336;43.062;25.626;2023-03-01T13:51:11;7.20;99.90
68385;DHT22;55336;43.062;25.626;2023-03-01T13:53:45;7.20;99.90
68385;DHT22;55336;43.062;25.626;2023-03-01T13:56:18;7.20;99.90
68385;DHT22;55336;43.062;25.626;2023-03-01T14:01:27;7.20;99.90
68385;DHT22;55336;43.062;25.626;2023-03-01T14:03:54;7.20;99.90
68385;DHT22;55336;43.062;25.626;2023-03-01T14:06:31;7.20;99.90
68385;DHT22;55336;43.062;25.626;2023-03-01T14:09:18;7.30;99.90
68385;DHT22;55336;43.062;25.626;2023-03-01T14:14:44;7.30;99.90
68385;DHT22;55336;43.062;25.626;2023-03-01T14:17:30;7.20;99.90
68385;DHT22;55336;43.062;25.626;2023-03-01T14:19:59;7.30;99.90
68385;DHT22;55336;43.062;25.626;2023-03-01T14:22:33;7.20;99.90
68385;DHT22;55336;43.062;25.626;2023-03-01T14:25:02;7.20;99.90
68385;DHT22;55336;43.062;25.626;2023-03-01T14:27:33;7.20;99.90
68385;DHT22;55336;43.062;25.626;2023-03-01T14:30:24;7.20;99.90
68385;DHT22;55336;43.062;25.626;2023-03-01T14:32:59;7.10;99.90
68385;DHT22;55336;43.062;25.626;2023-03-01T14:35:31;7.10;99.90
68385;DHT22;55336;43.062;25.626;2023-03-01T14:37:57;7.10;99.90
68385;DHT22;55336;43.062;25.626;2023-03-01T14:40:31;7.10;99.90
68385;DHT22;55336;43.062;25.626;2023-03-01T14:42:59;7.00;99.90
68385;DHT22;55336;43.062;25.626;2023-03-01T14:45:27;7.00;99.90
68385;DHT22;55336;43.062;25.626;2023-03-01T14:47:55;6.90;99.90
68385;DHT22;55336;43.062;25.626;2023-03-01T14:50:34;6.90;99.90
68385;DHT22;55336;43.062;25.626;2023-03-01T14:53:29;6.90;99.90
68385;DHT22;55336;43.062;25.626;2023-03-01T14:59:12;7.00;99.90
68385;DHT22;55336;43.062;25.626;2023-03-01T15:01:52;7.00;99.90
68385;DHT22;55336;43.062;25.626;2023-03-01T15:04:25;7.10;99.90
68385;DHT22;55336;43.062;25.626;2023-03-01T15:07:09;7.10;99.90
68385;DHT22;55336;43.062;25.626;2023-03-01T15:09:45;7.00;99.90
68385;DHT22;55336;43.062;25.626;2023-03-01T15:12:35;7.10;99.90
68385;DHT22;55336;43.062;25.626;2023-03-01T15:15:34;7.00;99.90
68385;DHT22;55336;43.062;25.626;2023-03-01T15:18:22;7.10;99.90
68385;DHT22;55336;43.062;25.626;2023-03-01T15:20:51;7.10;99.90
68385;DHT22;55336;43.062;25.626;2023-03-01T15:23:28;7.10;99.90
68385;DHT22;55336;43.062;25.626;2023-03-01T15:25:58;7.00;99.90
68385;DHT22;55336;43.062;25.626;2023-03-01T15:28:37;7.00;99.90
68385;DHT22;55336;43.062;25.626;2023-03-01T15:31:27;7.10;99.90
68385;DHT22;55336;43.062;25.626;2023-03-01T15:34:08;7.00;99.90
68385;DHT22;55336;43.062;25.626;2023-03-01T15:36:46;7.00;99.90
68385;DHT22;55336;43.062;25.626;2023-03-01T15:44:41;7.00;99.90
68385;DHT22;55336;43.062;25.626;2023-03-01T15:47:26;6.90;99.90
68385;DHT22;55336;43.062;25.626;2023-03-01T15:49:54;6.80;99.90
68385;DHT22;55336;43.062;25.626;2023-03-01T15:52:49;6.90;99.90
68385;DHT22;55336;43.062;25.626;2023-03-01T15:55:21;6.90;99.90
68385;DHT22;55336;43.062;25.626;2023-03-01T15:57:49;6.90;99.90
68385;DHT22;55336;43.062;25.626;2023-03-01T16:00:16;6.90;99.90
68385;DHT22;55336;43.062;25.626;2023-03-01T16:02:43;6.90;99.90
68385;DHT22;55336;43.062;25.626;2023-03-01T16:07:50;7.10;99.90
68385;DHT22;55336;43.062;25.626;2023-03-01T16:10:16;6.70;99.90
68385;DHT22;55336;43.062;25.626;2023-03-01T16:12:42;6.70;99.90
68385;DHT22;55336;43.062;25.626;2023-03-01T16:15:27;6.60;99.90
68385;DHT22;55336;43.062;25.626;2023-03-01T16:17:53;6.60;99.90
68385;DHT22;55336;43.062;25.626;2023-03-01T16:20:23;6.60;99.90
68385;DHT22;55336;43.062;25.626;2023-03-01T16:22:49;6.60;99.90
68385;DHT22;55336;43.062;25.626;2023-03-01T16:25:20;6.70;99.90
68385;DHT22;55336;43.062;25.626;2023-03-01T16:27:50;6.70;99.90
68385;DHT22;55336;43.062;25.626;2023-03-01T16:30:25;6.60;99.90
68385;DHT22;55336;43.062;25.626;2023-03-01T16:32:58;6.60;99.90
68385;DHT22;55336;43.062;25.626;2023-03-01T16:35:24;6.60;99.90
68385;DHT22;55336;43.062;25.626;2023-03-01T16:37:50;6.60;99.90
68385;DHT22;55336;43.062;25.626;2023-03-01T16:40:26;6.50;99.90
68385;DHT22;55336;43.062;25.626;2023-03-01T16:42:56;6.50;99.90
68385;DHT22;55336;43.062;25.626;2023-03-01T16:45:34;6.60;99.90
68385;DHT22;55336;43.062;25.626;2023-03-01T16:48:08;6.50;99.90
68385;DHT22;55336;43.062;25.626;2023-03-01T16:50:37;6.50;99.90
68385;DHT22;55336;43.062;25.626;2023-03-01T16:53:21;6.60;99.90
68385;DHT22;55336;43.062;25.626;2023-03-01T16:55:58;6.60;99.90
68385;DHT22;55336;43.062;25.626;2023-03-01T16:58:24;6.50;99.90
68385;DHT22;55336;43.062;25.626;2023-03-01T17:00:54;6.50;99.90
68385;DHT22;55336;43.062;25.626;2023-03-01T17:03:22;6.50;99.90
68385;DHT22;55336;43.062;25.626;2023-03-01T17:05:49;6.50;99.90
68385;DHT22;55336;43.062;25.626;2023-03-01T17:08:15;6.50;99.90
68385;DHT22;55336;43.062;25.626;2023-03-01T17:10:44;6.50;99.90
68385;DHT22;55336;43.062;25.626;2023-03-01T17:13:13;6.80;99.90
68385;DHT22;55336;43.062;25.626;2023-03-01T17:15:40;6.50;99.90
68385;DHT22;55336;43.062;25.626;2023-03-01T17:18:18;6.50;99.90
68385;DHT22;55336;43.062;25.626;2023-03-01T17:20:45;6.80;99.90
68385;DHT22;55336;43.062;25.626;2023-03-01T17:23:10;6.50;99.90
68385;DHT22;55336;43.062;25.626;2023-03-01T17:25:44;6.50;99.90
68385;DHT22;55336;43.062;25.626;2023-03-01T17:28:11;6.50;99.90
68385;DHT22;55336;43.062;25.626;2023-03-01T17:30:42;6.50;99.90
68385;DHT22;55336;43.062;25.626;2023-03-01T17:33:13;6.80;99.90
68385;DHT22;55336;43.062;25.626;2023-03-01T17:35:40;6.60;99.90
68385;DHT22;55336;43.062;25.626;2023-03-01T17:38:06;6.50;99.90
68385;DHT22;55336;43.062;25.626;2023-03-01T17:40:36;6.50;99.90
68385;DHT22;55336;43.062;25.626;2023-03-01T17:43:05;6.50;99.90
68385;DHT22;55336;43.062;25.626;2023-03-01T17:45:38;6.50;99.90
68385;DHT22;55336;43.062;25.626;2023-03-01T17:48:05;6.50;99.90
68385;DHT22;55336;43.062;25.626;2023-03-01T17:50:32;6.50;99.90